createdAt,value
2022-11-17T00:01:10.035Z,64.55
2022-11-17T00:03:37.788Z,64.34
2022-11-17T00:06:07.325Z,61.99
2022-11-17T00:08:34.735Z,63.54
2022-11-17T00:11:04.190Z,64.63
2022-11-17T00:13:51.374Z,64.80
2022-11-17T00:16:22.551Z,63.75
2022-11-17T00:19:09.249Z,64.59
2022-11-17T00:21:39.304Z,64.86
2022-11-17T00:24:07.250Z,64.53
2022-11-17T00:26:56.829Z,65.28
2022-11-17T00:29:31.781Z,65.36
2022-11-17T00:32:17.755Z,65.63
2022-11-17T00:34:45.333Z,65.65
2022-11-17T00:37:15.346Z,65.84
2022-11-17T00:39:42.771Z,66.20
2022-11-17T00:42:10.408Z,66.20
2022-11-17T00:45:04.651Z,66.61
2022-11-17T00:47:36.361Z,66.84
2022-11-17T00:50:04.134Z,66.86
2022-11-17T00:52:31.394Z,66.00
2022-11-17T00:54:58.689Z,65.85
2022-11-17T00:57:26.332Z,65.27
2022-11-17T00:59:53.987Z,65.85
2022-11-17T01:02:30.895Z,65.93
2022-11-17T01:04:58.123Z,66.42
2022-11-17T01:07:30.571Z,67.50
2022-11-17T01:09:57.947Z,67.36
2022-11-17T01:12:25.302Z,65.69
2022-11-17T01:14:52.593Z,66.29
2022-11-17T01:17:19.811Z,67.02
2022-11-17T01:19:49.275Z,67.67
2022-11-17T01:22:17.692Z,67.46
2022-11-17T01:24:48.608Z,65.81
2022-11-17T01:27:59.348Z,66.75
2022-11-17T01:33:39.591Z,68.07
2022-11-17T01:36:25.929Z,67.84
2022-11-17T01:38:53.285Z,68.84
2022-11-17T01:41:26.949Z,68.57
2022-11-17T01:44:13.501Z,68.66
2022-11-17T01:46:43.070Z,69.02
2022-11-17T01:49:19.997Z,69.67
2022-11-17T01:51:59.067Z,69.56
2022-11-17T01:54:34.208Z,70.35
2022-11-17T01:57:21.946Z,69.98
2022-11-17T02:00:04.554Z,69.84
2022-11-17T02:02:41.947Z,69.69
2022-11-17T02:06:10.028Z,69.93
2022-11-17T02:08:46.102Z,70.68
2022-11-17T02:11:27.983Z,70.33
2022-11-17T02:14:36.844Z,70.52
2022-11-17T02:17:10.274Z,70.45
2022-11-17T02:19:46.459Z,70.30
2022-11-17T02:22:44.776Z,69.34
2022-11-17T02:25:39.246Z,69.23
2022-11-17T02:28:21.529Z,69.57
2022-11-17T02:31:23.237Z,70.23
2022-11-17T02:34:10.242Z,69.86
2022-11-17T02:37:30.701Z,70.37
2022-11-17T02:40:19.013Z,71.22
2022-11-17T02:43:17.671Z,71.12
2022-11-17T02:46:01.380Z,70.95
2022-11-17T02:48:37.040Z,71.00
2022-11-17T02:51:12.530Z,70.92
2022-11-17T02:53:42.558Z,71.68
2022-11-17T02:56:10.747Z,71.35
2022-11-17T02:58:42.729Z,70.68
2022-11-17T03:01:44.485Z,71.75
2022-11-17T03:04:57.720Z,69.93
2022-11-17T03:08:28.722Z,70.90
2022-11-17T03:11:10.346Z,71.17
2022-11-17T03:14:04.854Z,71.54
2022-11-17T03:16:46.086Z,71.78
2022-11-17T03:19:34.975Z,71.22
2022-11-17T03:22:27.883Z,71.61
2022-11-17T03:25:05.957Z,70.87
2022-11-17T03:27:46.012Z,69.71
2022-11-17T03:30:18.077Z,70.55
2022-11-17T03:32:55.057Z,69.79
2022-11-17T03:35:31.630Z,71.10
2022-11-17T03:38:11.246Z,72.08
2022-11-17T03:40:48.230Z,72.39
2022-11-17T03:43:25.746Z,71.64
2022-11-17T03:46:03.437Z,71.57
2022-11-17T03:49:05.907Z,71.24
2022-11-17T03:51:33.506Z,71.92
2022-11-17T03:54:01.665Z,70.79
2022-11-17T03:56:57.854Z,71.32
2022-11-17T04:00:08.308Z,70.75
2022-11-17T04:02:49.004Z,73.18
2022-11-17T04:05:18.380Z,73.39
2022-11-17T04:07:48.237Z,73.35
2022-11-17T04:10:26.645Z,73.16
2022-11-17T04:13:13.336Z,73.12
2022-11-17T04:15:59.200Z,72.51
2022-11-17T04:18:27.173Z,72.26
2022-11-17T04:20:57.567Z,72.41
2022-11-17T04:23:25.932Z,72.28
2022-11-17T04:26:15.438Z,72.53
2022-11-17T04:28:48.989Z,72.37
2022-11-17T04:31:27.053Z,72.65
2022-11-17T04:34:02.995Z,72.32
2022-11-17T04:36:37.751Z,72.75
2022-11-17T04:39:05.020Z,72.88
2022-11-17T04:41:53.527Z,72.58
2022-11-17T04:44:27.587Z,72.26
2022-11-17T04:46:57.090Z,72.32
2022-11-17T04:49:26.073Z,72.08
2022-11-17T04:51:54.190Z,71.91
2022-11-17T04:54:24.735Z,70.37
2022-11-17T04:56:54.635Z,70.51
2022-11-17T04:59:22.311Z,70.84
2022-11-17T05:01:49.950Z,70.92
2022-11-17T05:04:39.766Z,70.97
2022-11-17T05:07:08.747Z,71.95
2022-11-17T05:09:36.212Z,72.14
2022-11-17T05:12:22.289Z,72.01
2022-11-17T05:14:50.348Z,72.45
2022-11-17T05:17:18.039Z,72.29
2022-11-17T05:19:48.583Z,71.64
2022-11-17T05:22:40.562Z,71.53
2022-11-17T05:25:09.657Z,69.77
2022-11-17T05:27:38.033Z,70.11
2022-11-17T05:30:08.981Z,70.49
2022-11-17T05:32:36.114Z,70.86
2022-11-17T05:35:03.474Z,71.13
2022-11-17T05:37:30.595Z,71.64
2022-11-17T05:39:57.719Z,71.82
2022-11-17T05:42:24.869Z,70.56
2022-11-17T05:44:52.022Z,71.74
2022-11-17T05:47:19.274Z,72.21
2022-11-17T05:49:46.502Z,72.25
2022-11-17T05:52:13.769Z,72.00
2022-11-17T05:54:41.029Z,72.43
2022-11-17T05:57:21.910Z,72.89
2022-11-17T06:00:00.741Z,72.26
2022-11-17T06:02:43.668Z,71.24
2022-11-17T06:05:14.416Z,71.55
2022-11-17T06:07:44.658Z,71.57
2022-11-17T06:10:11.787Z,71.53
2022-11-17T06:12:38.927Z,72.11
2022-11-17T06:15:06.902Z,72.33
2022-11-17T06:17:53.734Z,72.39
2022-11-17T06:20:35.421Z,72.72
2022-11-17T06:23:07.185Z,72.55
2022-11-17T06:25:38.126Z,71.79
2022-11-17T06:28:13.985Z,71.83
2022-11-17T06:30:42.909Z,71.79
2022-11-17T06:33:15.680Z,71.37
2022-11-17T06:35:45.244Z,72.02
2022-11-17T06:38:12.538Z,72.75
2022-11-17T06:43:33.466Z,72.74
2022-11-17T06:46:05.893Z,72.32
2022-11-17T06:48:35.535Z,71.75
2022-11-17T06:51:05.742Z,72.33
2022-11-17T06:53:35.146Z,71.61
2022-11-17T06:56:07.519Z,71.41
2022-11-17T06:58:39.192Z,71.81
2022-11-17T07:01:17.247Z,72.47
2022-11-17T07:03:44.515Z,72.95
2022-11-17T07:06:12.933Z,73.25
2022-11-17T07:08:40.269Z,73.10
2022-11-17T07:11:15.245Z,71.55
2022-11-17T07:13:43.224Z,70.05
2022-11-17T07:16:23.546Z,70.69
2022-11-17T07:18:53.566Z,71.63
2022-11-17T07:21:22.421Z,71.42
2022-11-17T07:23:49.596Z,71.72
2022-11-17T07:26:16.804Z,69.36
2022-11-17T07:28:44.018Z,70.83
2022-11-17T07:31:13.821Z,70.78
2022-11-17T07:33:41.418Z,72.80
2022-11-17T07:36:14.751Z,72.60
2022-11-17T07:38:42.685Z,70.68
2022-11-17T07:41:14.985Z,71.68
2022-11-17T07:43:42.502Z,70.97
2022-11-17T07:46:14.407Z,71.22
2022-11-17T07:48:43.905Z,71.95
2022-11-17T07:51:13.974Z,72.15
2022-11-17T07:53:41.336Z,71.87
2022-11-17T07:56:11.620Z,71.99
2022-11-17T07:58:40.534Z,71.57
2022-11-17T08:01:17.973Z,70.14
2022-11-17T08:03:45.941Z,71.35
2022-11-17T08:06:14.052Z,71.84
2022-11-17T08:08:41.354Z,70.88
2022-11-17T08:11:12.865Z,70.96
2022-11-17T08:13:41.604Z,70.58
2022-11-17T08:16:10.920Z,71.15
2022-11-17T08:18:39.564Z,70.70
2022-11-17T08:21:13.896Z,71.50
2022-11-17T08:23:42.280Z,69.10
2022-11-17T08:26:11.868Z,69.42
2022-11-17T08:28:39.601Z,67.72
2022-11-17T08:31:08.393Z,67.77
2022-11-17T08:33:36.645Z,67.25
2022-11-17T08:36:07.215Z,67.39
2022-11-17T08:38:36.365Z,66.76
2022-11-17T08:41:08.138Z,66.43
2022-11-17T08:43:36.590Z,65.09
2022-11-17T08:46:04.789Z,64.47
2022-11-17T08:48:33.407Z,63.82
2022-11-17T08:51:07.945Z,64.36
2022-11-17T08:53:35.441Z,64.67
2022-11-17T08:56:09.951Z,61.67
2022-11-17T08:58:46.164Z,61.55
2022-11-17T09:01:16.610Z,61.60
2022-11-17T09:03:47.912Z,64.73
2022-11-17T09:06:17.759Z,62.90
2022-11-17T09:08:56.344Z,64.29
2022-11-17T09:11:24.199Z,61.13
2022-11-17T09:13:51.616Z,60.36
2022-11-17T09:16:19.030Z,59.74
2022-11-17T09:18:46.947Z,57.58
2022-11-17T09:21:16.056Z,56.36
2022-11-17T09:23:43.842Z,49.72
2022-11-17T09:26:15.377Z,52.97
2022-11-17T09:28:45.067Z,49.42
2022-11-17T09:31:22.028Z,48.99
2022-11-17T09:33:50.020Z,48.85
2022-11-17T09:36:17.843Z,48.28
2022-11-17T09:38:46.747Z,47.81
2022-11-17T09:41:31.464Z,45.33
2022-11-17T09:44:42.301Z,46.10
2022-11-17T09:47:42.524Z,41.60
2022-11-17T09:50:29.667Z,38.85
2022-11-17T09:53:58.815Z,34.45
2022-11-17T09:56:27.794Z,34.94
2022-11-17T09:59:05.161Z,39.45
2022-11-17T10:01:32.742Z,40.75
2022-11-17T10:04:01.449Z,42.55
2022-11-17T10:06:32.391Z,42.66
2022-11-17T10:09:35.661Z,42.93
2022-11-17T10:12:20.902Z,44.98
2022-11-17T10:15:00.235Z,42.65
2022-11-17T10:17:27.524Z,40.91
2022-11-17T10:19:58.559Z,39.48
2022-11-17T10:22:39.190Z,34.30
2022-11-17T10:25:40.876Z,30.43
2022-11-17T10:28:33.618Z,27.90
2022-11-17T10:31:10.836Z,29.63
2022-11-17T10:34:03.181Z,30.42
2022-11-17T10:36:36.780Z,29.28
2022-11-17T10:39:04.377Z,29.91
2022-11-17T10:41:45.378Z,31.33
2022-11-17T10:44:25.777Z,31.58
2022-11-17T10:47:04.895Z,35.06
2022-11-17T10:49:39.820Z,35.40
2022-11-17T10:52:18.314Z,34.88
2022-11-17T10:55:20.500Z,35.45
2022-11-17T10:57:47.958Z,36.76
2022-11-17T11:00:46.686Z,38.61
2022-11-17T11:03:50.748Z,39.06
2022-11-17T11:06:27.332Z,35.41
2022-11-17T11:09:21.806Z,31.26
2022-11-17T11:11:55.414Z,30.02
2022-11-17T11:14:40.673Z,30.62
2022-11-17T11:17:18.075Z,30.52
2022-11-17T11:20:14.870Z,30.31
2022-11-17T11:23:03.266Z,31.30
2022-11-17T11:26:59.601Z,32.77
2022-11-17T11:30:03.250Z,35.45
2022-11-17T11:33:04.952Z,33.33
2022-11-17T11:36:01.930Z,35.43
2022-11-17T11:38:58.015Z,34.22
2022-11-17T11:42:32.186Z,32.10
2022-11-17T11:45:17.975Z,29.73
2022-11-17T11:48:28.282Z,32.20
2022-11-17T11:51:33.075Z,36.00
2022-11-17T11:54:19.836Z,38.14
2022-11-17T11:56:53.203Z,38.86
2022-11-17T11:59:50.441Z,38.88
2022-11-17T12:03:11.043Z,41.08
2022-11-17T12:06:28.434Z,40.66
2022-11-17T12:10:09.956Z,37.72
2022-11-17T12:12:40.772Z,34.51
2022-11-17T12:15:34.277Z,31.57
2022-11-17T12:18:24.738Z,31.14
2022-11-17T12:20:59.589Z,30.57
2022-11-17T12:24:15.890Z,28.60
2022-11-17T12:26:43.736Z,30.44
2022-11-17T12:29:20.277Z,32.52
2022-11-17T12:32:01.631Z,34.58
2022-11-17T12:34:37.741Z,36.21
2022-11-17T12:37:28.678Z,37.10
2022-11-17T12:40:09.631Z,36.90
2022-11-17T12:43:15.880Z,36.59
2022-11-17T12:46:22.304Z,36.53
2022-11-17T12:49:07.932Z,34.04
2022-11-17T12:52:07.068Z,34.48
2022-11-17T12:55:05.313Z,34.28
2022-11-17T12:58:10.299Z,34.45
2022-11-17T13:00:29.582Z,35.35
2022-11-17T13:03:10.283Z,37.13
2022-11-17T13:05:38.501Z,35.80
2022-11-17T13:08:32.331Z,36.29
2022-11-17T13:11:17.186Z,36.21
2022-11-17T13:13:47.849Z,35.58
2022-11-17T13:16:21.627Z,34.23
2022-11-17T13:18:49.745Z,32.97
2022-11-17T13:21:45.494Z,34.01
2022-11-17T13:24:28.564Z,31.67
2022-11-17T13:27:18.015Z,32.04
2022-11-17T13:29:47.634Z,35.18
2022-11-17T13:32:24.233Z,35.03
2022-11-17T13:34:58.014Z,34.77
2022-11-17T13:37:39.149Z,35.77
2022-11-17T13:40:23.380Z,35.98
2022-11-17T13:43:01.000Z,36.43
2022-11-17T13:45:28.673Z,37.35
2022-11-17T13:47:59.381Z,36.46
2022-11-17T13:50:28.150Z,37.47
2022-11-17T13:53:06.610Z,37.16
2022-11-17T13:55:34.818Z,37.17
2022-11-17T13:58:07.228Z,36.86
2022-11-17T14:00:42.538Z,37.17
2022-11-17T14:03:43.654Z,35.80
2022-11-17T14:06:14.624Z,36.57
2022-11-17T14:09:02.505Z,35.05
2022-11-17T14:11:30.312Z,37.57
2022-11-17T14:14:01.113Z,37.60
2022-11-17T14:16:40.314Z,38.75
2022-11-17T14:19:17.419Z,37.47
2022-11-17T14:22:03.310Z,38.63
2022-11-17T14:24:33.082Z,38.99
2022-11-17T14:27:01.721Z,39.32
2022-11-17T14:29:29.783Z,39.28
2022-11-17T14:31:57.270Z,39.31
2022-11-17T14:34:24.779Z,39.89
2022-11-17T14:36:55.375Z,39.06
2022-11-17T14:39:23.109Z,39.28
2022-11-17T14:41:52.363Z,40.30
2022-11-17T14:44:21.864Z,40.42
2022-11-17T14:47:15.331Z,40.59
2022-11-17T14:49:46.362Z,40.51
2022-11-17T14:52:16.699Z,41.61
2022-11-17T14:54:44.033Z,40.38
2022-11-17T14:57:11.810Z,41.27
2022-11-17T14:59:40.068Z,42.33
2022-11-17T15:02:12.141Z,41.67
2022-11-17T15:04:51.294Z,41.28
2022-11-17T15:07:20.229Z,40.92
2022-11-17T15:09:49.338Z,41.21
2022-11-17T15:12:17.227Z,40.89
2022-11-17T15:14:47.508Z,40.94
2022-11-17T15:17:18.904Z,41.23
2022-11-17T15:19:46.472Z,40.80
2022-11-17T15:22:14.196Z,41.72
2022-11-17T15:24:42.421Z,41.17
2022-11-17T15:27:12.355Z,41.82
2022-11-17T15:29:39.861Z,42.31
2022-11-17T15:32:07.995Z,43.00
2022-11-17T15:34:36.780Z,43.33
2022-11-17T15:37:05.454Z,42.49
2022-11-17T15:39:33.195Z,42.45
2022-11-17T15:42:04.870Z,43.94
2022-11-17T15:44:32.314Z,44.42
2022-11-17T15:47:03.775Z,45.25
2022-11-17T15:49:31.935Z,46.82
2022-11-17T15:51:59.545Z,45.23
2022-11-17T15:54:30.668Z,45.99
2022-11-17T15:57:00.625Z,46.82
2022-11-17T15:59:28.363Z,48.59
2022-11-17T16:01:58.617Z,48.39
2022-11-17T16:04:29.231Z,48.18
2022-11-17T16:06:56.555Z,47.88
2022-11-17T16:09:23.873Z,47.89
2022-11-17T16:11:51.407Z,48.03
2022-11-17T16:14:18.842Z,48.46
2022-11-17T16:16:47.908Z,48.90
2022-11-17T16:19:15.828Z,49.06
2022-11-17T16:21:44.573Z,49.95
2022-11-17T16:24:15.233Z,50.76
2022-11-17T16:26:43.221Z,51.21
2022-11-17T16:29:10.445Z,50.42
2022-11-17T16:31:39.010Z,50.04
2022-11-17T16:34:16.272Z,50.35
2022-11-17T16:36:44.601Z,51.09
2022-11-17T16:39:17.494Z,51.76
2022-11-17T16:41:45.963Z,51.99
2022-11-17T16:44:18.199Z,53.60
2022-11-17T16:46:48.639Z,54.12
2022-11-17T16:49:41.150Z,53.91
2022-11-17T16:52:18.228Z,54.09
2022-11-17T16:54:45.596Z,52.57
2022-11-17T16:57:13.105Z,52.72
2022-11-17T16:59:40.823Z,53.52
2022-11-17T17:02:13.823Z,53.89
2022-11-17T17:04:40.969Z,52.48
2022-11-17T17:07:08.156Z,52.90
2022-11-17T17:09:37.381Z,53.85
2022-11-17T17:12:06.121Z,52.89
2022-11-17T17:14:33.574Z,52.41
2022-11-17T17:17:01.031Z,52.81
2022-11-17T17:19:29.115Z,52.66
2022-11-17T17:21:57.062Z,53.07
2022-11-17T17:24:24.578Z,53.51
2022-11-17T17:26:51.825Z,53.40
2022-11-17T17:29:19.543Z,52.99
2022-11-17T17:31:46.871Z,52.57
2022-11-17T17:34:14.175Z,52.72
2022-11-17T17:36:41.614Z,53.88
2022-11-17T17:39:15.715Z,53.74
2022-11-17T17:41:44.618Z,53.50
2022-11-17T17:44:19.340Z,53.23
2022-11-17T17:46:47.398Z,55.15
2022-11-17T17:49:16.141Z,53.89
2022-11-17T17:51:45.315Z,54.08
2022-11-17T17:54:23.920Z,53.38
2022-11-17T17:56:51.280Z,53.30
2022-11-17T17:59:19.182Z,52.77
2022-11-17T18:01:47.746Z,53.05
2022-11-17T18:04:16.700Z,53.10
2022-11-17T18:06:47.748Z,51.50
2022-11-17T18:09:19.409Z,51.66
2022-11-17T18:11:50.505Z,52.96
2022-11-17T18:14:24.018Z,52.33
2022-11-17T18:16:53.641Z,52.69
2022-11-17T18:19:21.527Z,52.58
2022-11-17T18:21:49.107Z,52.11
2022-11-17T18:24:16.393Z,51.73
2022-11-17T18:26:43.766Z,51.40
2022-11-17T18:29:19.603Z,51.47
2022-11-17T18:31:48.448Z,51.98
2022-11-17T18:34:20.992Z,52.32
2022-11-17T18:36:55.449Z,52.63
2022-11-17T18:39:23.619Z,52.59
2022-11-17T18:41:51.796Z,51.63
2022-11-17T18:44:19.981Z,51.93
2022-11-17T18:46:47.966Z,51.30
2022-11-17T18:49:16.595Z,51.41
2022-11-17T18:51:44.502Z,51.75
2022-11-17T18:54:13.021Z,52.10
2022-11-17T18:56:41.245Z,52.04
2022-11-17T18:59:12.380Z,52.30
2022-11-17T19:01:42.891Z,52.00
2022-11-17T19:04:13.810Z,52.25
2022-11-17T19:06:42.240Z,52.49
2022-11-17T19:09:10.933Z,51.18
2022-11-17T19:11:39.461Z,51.15
2022-11-17T19:14:07.537Z,51.85
2022-11-17T19:16:42.503Z,51.73
2022-11-17T19:19:20.919Z,52.48
2022-11-17T19:21:51.134Z,52.76
2022-11-17T19:24:18.459Z,50.28
2022-11-17T19:26:45.951Z,50.08
2022-11-17T19:29:17.190Z,49.16
2022-11-17T19:31:46.830Z,48.89
2022-11-17T19:34:15.685Z,48.83
2022-11-17T19:36:44.358Z,47.09
2022-11-17T19:39:13.366Z,46.96
2022-11-17T19:41:40.907Z,48.00
2022-11-17T19:44:09.541Z,47.35
2022-11-17T19:46:37.565Z,48.16
2022-11-17T19:49:07.692Z,48.84
2022-11-17T19:51:37.330Z,47.85
2022-11-17T19:54:10.002Z,48.09
2022-11-17T19:56:38.361Z,47.85
2022-11-17T19:59:11.006Z,48.22
2022-11-17T20:01:41.524Z,48.23
2022-11-17T20:04:08.932Z,48.27
2022-11-17T20:06:38.870Z,49.17
2022-11-17T20:09:11.238Z,49.47
2022-11-17T20:11:40.025Z,51.11
2022-11-17T20:14:07.734Z,51.98
2022-11-17T20:16:36.708Z,52.21
2022-11-17T20:19:04.863Z,53.47
2022-11-17T20:21:32.320Z,55.72
2022-11-17T20:24:01.068Z,57.07
2022-11-17T20:26:33.372Z,58.75
2022-11-17T20:29:01.722Z,60.71
2022-11-17T20:31:34.039Z,61.23
2022-11-17T20:34:05.264Z,61.49
2022-11-17T20:36:34.717Z,61.53
2022-11-17T20:39:06.931Z,61.16
2022-11-17T20:41:35.115Z,62.07
2022-11-17T20:44:04.451Z,58.82
2022-11-17T20:46:32.278Z,62.05
2022-11-17T20:49:00.083Z,63.12
2022-11-17T20:51:27.524Z,65.61
2022-11-17T20:53:55.633Z,68.16
2022-11-17T20:56:23.804Z,69.05
2022-11-17T20:58:51.412Z,68.93
2022-11-17T21:01:22.978Z,69.68
2022-11-17T21:03:50.322Z,69.91
2022-11-17T21:06:19.879Z,70.11
2022-11-17T21:08:47.377Z,68.76
2022-11-17T21:11:57.692Z,70.49
2022-11-17T21:14:27.547Z,68.63
2022-11-17T21:16:57.653Z,68.65
2022-11-17T21:19:25.054Z,69.54
2022-11-17T21:21:55.830Z,71.50
2022-11-17T21:24:23.367Z,70.43
2022-11-17T21:26:54.648Z,70.31
2022-11-17T21:29:22.295Z,70.60
2022-11-17T21:31:50.117Z,70.91
2022-11-17T21:34:17.735Z,69.04
2022-11-17T21:36:45.005Z,70.88
2022-11-17T21:39:18.369Z,70.96
2022-11-17T21:41:46.018Z,71.07
2022-11-17T21:44:14.297Z,68.72
2022-11-17T21:46:41.552Z,69.19
2022-11-17T21:49:08.746Z,69.57
2022-11-17T21:51:38.608Z,68.73
2022-11-17T21:54:09.761Z,70.34
2022-11-17T21:56:38.048Z,69.44
2022-11-17T21:59:12.622Z,70.23
2022-11-17T22:01:40.496Z,68.38
2022-11-17T22:04:08.044Z,70.09
2022-11-17T22:06:35.410Z,69.64
2022-11-17T22:09:03.058Z,70.70
2022-11-17T22:11:35.879Z,71.74
2022-11-17T22:14:19.111Z,72.85
2022-11-17T22:16:52.106Z,70.30
2022-11-17T22:19:23.697Z,72.71
2022-11-17T22:21:53.660Z,72.26
2022-11-17T22:24:25.461Z,72.26
2022-11-17T22:27:04.598Z,70.79
2022-11-17T22:30:01.096Z,69.59
2022-11-17T22:32:53.514Z,69.55
2022-11-17T22:35:27.911Z,69.46
2022-11-17T22:38:00.438Z,69.50
2022-11-17T22:40:33.009Z,71.39
2022-11-17T22:43:21.200Z,71.12
2022-11-17T22:46:02.055Z,71.36
2022-11-17T22:48:51.397Z,70.94
2022-11-17T22:51:49.162Z,71.01
2022-11-17T22:54:23.884Z,72.43
2022-11-17T22:57:00.210Z,71.87
2022-11-17T22:59:42.101Z,71.98
2022-11-17T23:02:53.258Z,70.97
2022-11-17T23:06:15.567Z,71.14
2022-11-17T23:09:15.924Z,71.56
2022-11-17T23:12:40.656Z,71.24
2022-11-17T23:15:13.687Z,71.61
2022-11-17T23:18:35.799Z,72.46
2022-11-17T23:24:51.004Z,71.11
2022-11-17T23:27:24.797Z,70.72
2022-11-17T23:29:53.699Z,71.54
2022-11-17T23:32:36.849Z,72.07
2022-11-17T23:35:13.618Z,72.03
2022-11-17T23:38:12.882Z,72.60
2022-11-17T23:40:56.664Z,72.07
2022-11-17T23:44:11.640Z,71.79
2022-11-17T23:51:24.941Z,72.74
2022-11-17T23:53:54.395Z,72.58
2022-11-17T23:56:53.541Z,72.39
2022-11-17T23:59:22.274Z,72.57
